PWSweather.com
Personal Weather Stations
Station Observations
SD92115WX
El Cerrito Stoneybluff, San Diego, CA 92115

El Cerrito StoneybluffSan Diego, CA 92115

Lat: 32.754096, Lon: -117.066705

Elevation: 420

Station Type: Davis Vantage Vue

http://stoneybluff.com

High Low Average
Temperature 67.3°F19.6°C 53.6°F12.0°C 58.7°F14.8°C
Dew Point 54.7°F12.6°C 50.2°F10.1°C 52.4°F11.3°C
Winds 9.4 mph 15.1 kmh Calm Calm 2.0 mph SW3.2 kmh SW
Wind Gusts 14.8 mph23.8 kmh -- 5.0 mph8.0 kmh
Humidity 92% 60% 80%
Pressure 29.94 in1013.9 mb 29.82 in1009.8 mb -
Precipitation 0.00 in0.0 mm - -
Hour Temp Dew Point Humidity Winds Wind Gusts Pressure Precip Precip Rate Daily Precip Total
12:03 AM 55.8°F13.2°C 52.9°F11.6°C 90% 0.4 mph N0.6 kmh N 2.0 mph3.2 kmh 29.94 in1013.9 mb 0.00 in0.0 mm 0.00 in0.0 mm 0.00 in0.0 mm
12:08 AM 55.6°F13.1°C 52.7°F11.5°C 90% 1.1 mph NW1.8 kmh NW 2.0 mph3.2 kmh 29.93 in1013.5 mb 0.00 in0.0 mm 0.00 in0.0 mm 0.00 in0.0 mm
12:13 AM 55.6°F13.1°C 52.7°F11.5°C 90% Calm Calm 1.1 mph1.8 kmh 29.93 in1013.5 mb 0.00 in0.0 mm 0.00 in0.0 mm 0.00 in0.0 mm
12:18 AM 55.6°F13.1°C 52.7°F11.5°C 90% Calm Calm 1.1 mph1.8 kmh 29.93 in1013.5 mb 0.00 in0.0 mm 0.00 in0.0 mm 0.00 in0.0 mm
12:23 AM 55.6°F13.1°C 52.7°F11.5°C 90% Calm Calm -- 29.93 in1013.5 mb 0.00 in0.0 mm 0.00 in0.0 mm 0.00 in0.0 mm
12:28 AM 55.6°F13.1°C 52.7°F11.5°C 90% Calm Calm -- 29.93 in1013.5 mb 0.00 in0.0 mm 0.00 in0.0 mm 0.00 in0.0 mm
12:33 AM 55.6°F13.1°C 52.7°F11.5°C 90% Calm Calm -- 29.92 in1013.2 mb 0.00 in0.0 mm 0.00 in0.0 mm 0.00 in0.0 mm
12:38 AM 55.6°F13.1°C 52.7°F11.5°C 90% Calm Calm -- 29.92 in1013.2 mb 0.00 in0.0 mm 0.00 in0.0 mm 0.00 in0.0 mm
12:43 AM 55.6°F13.1°C 52.7°F11.5°C 90% Calm Calm -- 29.92 in1013.2 mb 0.00 in0.0 mm 0.00 in0.0 mm 0.00 in0.0 mm
12:48 AM 55.6°F13.1°C 52.7°F11.5°C 90% Calm Calm -- 29.92 in1013.2 mb 0.00 in0.0 mm 0.00 in0.0 mm 0.00 in0.0 mm
12:53 AM 55.4°F13.0°C 52.5°F11.4°C 90% Calm Calm -- 29.91 in1012.9 mb 0.00 in0.0 mm 0.00 in0.0 mm 0.00 in0.0 mm
12:58 AM 55.2°F12.9°C 52.3°F11.3°C 90% Calm Calm -- 29.91 in1012.9 mb 0.00 in0.0 mm 0.00 in0.0 mm 0.00 in0.0 mm
01:03 AM 55.2°F12.9°C 52.3°F11.3°C 90% Calm Calm -- 29.91 in1012.9 mb 0.00 in0.0 mm 0.00 in0.0 mm 0.00 in0.0 mm
01:09 AM 55.0°F12.8°C 52.2°F11.2°C 90% Calm Calm -- 29.91 in1012.9 mb 0.00 in0.0 mm 0.00 in0.0 mm 0.00 in0.0 mm
01:14 AM 55.0°F12.8°C 52.2°F11.2°C 90% Calm Calm -- 29.91 in1012.9 mb 0.00 in0.0 mm 0.00 in0.0 mm 0.00 in0.0 mm
01:19 AM 54.9°F12.7°C 52.3°F11.3°C 91% Calm Calm -- 29.90 in1012.5 mb 0.00 in0.0 mm 0.00 in0.0 mm 0.00 in0.0 mm
01:24 AM 54.9°F12.7°C 52.3°F11.3°C 91% Calm Calm -- 29.91 in1012.9 mb 0.00 in0.0 mm 0.00 in0.0 mm 0.00 in0.0 mm
01:29 AM 54.9°F12.7°C 52.3°F11.3°C 91% Calm Calm -- 29.91 in1012.9 mb 0.00 in0.0 mm 0.00 in0.0 mm 0.00 in0.0 mm
01:34 AM 54.7°F12.6°C 52.2°F11.2°C 91% Calm Calm -- 29.91 in1012.9 mb 0.00 in0.0 mm 0.00 in0.0 mm 0.00 in0.0 mm
01:39 AM 54.7°F12.6°C 52.2°F11.2°C 91% Calm Calm -- 29.90 in1012.5 mb 0.00 in0.0 mm 0.00 in0.0 mm 0.00 in0.0 mm
01:44 AM 54.7°F12.6°C 52.2°F11.2°C 91% Calm Calm -- 29.89 in1012.2 mb 0.00 in0.0 mm 0.00 in0.0 mm 0.00 in0.0 mm
01:49 AM 54.5°F12.5°C 52.0°F11.1°C 91% Calm Calm -- 29.89 in1012.2 mb 0.00 in0.0 mm 0.00 in0.0 mm 0.00 in0.0 mm
01:54 AM 54.5°F12.5°C 52.0°F11.1°C 91% Calm Calm 1.1 mph1.8 kmh 29.89 in1012.2 mb 0.00 in0.0 mm 0.00 in0.0 mm 0.00 in0.0 mm
01:59 AM 54.5°F12.5°C 52.2°F11.2°C 92% 0.7 mph WNW1.1 kmh WNW 1.1 mph1.8 kmh 29.89 in1012.2 mb 0.00 in0.0 mm 0.00 in0.0 mm 0.00 in0.0 mm
02:04 AM 54.7°F12.6°C 52.3°F11.3°C 92% 0.7 mph NW1.1 kmh NW 2.0 mph3.2 kmh 29.89 in1012.2 mb 0.00 in0.0 mm 0.00 in0.0 mm 0.00 in0.0 mm
02:09 AM 54.7°F12.6°C 52.2°F11.2°C 91% Calm Calm 2.0 mph3.2 kmh 29.89 in1012.2 mb 0.00 in0.0 mm 0.00 in0.0 mm 0.00 in0.0 mm
02:14 AM 54.7°F12.6°C 52.3°F11.3°C 92% Calm Calm -- 29.89 in1012.2 mb 0.00 in0.0 mm 0.00 in0.0 mm 0.00 in0.0 mm
02:19 AM 54.7°F12.6°C 52.2°F11.2°C 91% Calm Calm -- 29.89 in1012.2 mb 0.00 in0.0 mm 0.00 in0.0 mm 0.00 in0.0 mm
02:24 AM 54.7°F12.6°C 52.2°F11.2°C 91% Calm Calm -- 29.89 in1012.2 mb 0.00 in0.0 mm 0.00 in0.0 mm 0.00 in0.0 mm
02:29 AM 54.9°F12.7°C 52.5°F11.4°C 92% Calm Calm -- 29.89 in1012.2 mb 0.00 in0.0 mm 0.00 in0.0 mm 0.00 in0.0 mm
02:34 AM 54.9°F12.7°C 52.3°F11.3°C 91% Calm Calm -- 29.88 in1011.9 mb 0.00 in0.0 mm 0.00 in0.0 mm 0.00 in0.0 mm
02:39 AM 54.9°F12.7°C 52.3°F11.3°C 91% Calm Calm -- 29.88 in1011.9 mb 0.00 in0.0 mm 0.00 in0.0 mm 0.00 in0.0 mm
02:44 AM 54.7°F12.6°C 52.3°F11.3°C 92% 0.2 mph SW0.3 kmh SW 2.0 mph3.2 kmh 29.89 in1012.2 mb 0.00 in0.0 mm 0.00 in0.0 mm 0.00 in0.0 mm
02:49 AM 54.9°F12.7°C 52.5°F11.4°C 92% Calm Calm 1.1 mph1.8 kmh 29.88 in1011.9 mb 0.00 in0.0 mm 0.00 in0.0 mm 0.00 in0.0 mm
02:54 AM 54.9°F12.7°C 52.5°F11.4°C 92% Calm Calm 1.1 mph1.8 kmh 29.88 in1011.9 mb 0.00 in0.0 mm 0.00 in0.0 mm 0.00 in0.0 mm
02:59 AM 54.9°F12.7°C 52.5°F11.4°C 92% Calm Calm -- 29.89 in1012.2 mb 0.00 in0.0 mm 0.00 in0.0 mm 0.00 in0.0 mm
03:04 AM 54.9°F12.7°C 52.5°F11.4°C 92% Calm Calm 2.0 mph3.2 kmh 29.88 in1011.9 mb 0.00 in0.0 mm 0.00 in0.0 mm 0.00 in0.0 mm
03:09 AM 54.9°F12.7°C 52.5°F11.4°C 92% 0.2 mph WNW0.3 kmh WNW 1.1 mph1.8 kmh 29.88 in1011.9 mb 0.00 in0.0 mm 0.00 in0.0 mm 0.00 in0.0 mm
03:14 AM 55.0°F12.8°C 52.7°F11.5°C 92% 0.9 mph NW1.4 kmh NW 2.0 mph3.2 kmh 29.89 in1012.2 mb 0.00 in0.0 mm 0.00 in0.0 mm 0.00 in0.0 mm
03:19 AM 55.0°F12.8°C 52.7°F11.5°C 92% 0.4 mph NW0.6 kmh NW 2.0 mph3.2 kmh 29.88 in1011.9 mb 0.00 in0.0 mm 0.00 in0.0 mm 0.00 in0.0 mm
03:24 AM 55.0°F12.8°C 52.5°F11.4°C 91% 0.9 mph NW1.4 kmh NW 3.1 mph5.0 kmh 29.88 in1011.9 mb 0.00 in0.0 mm 0.00 in0.0 mm 0.00 in0.0 mm
03:29 AM 55.0°F12.8°C 52.5°F11.4°C 91% 0.2 mph NW0.3 kmh NW 1.1 mph1.8 kmh 29.88 in1011.9 mb 0.00 in0.0 mm 0.00 in0.0 mm 0.00 in0.0 mm
03:34 AM 55.0°F12.8°C 52.5°F11.4°C 91% 1.1 mph W1.8 kmh W 3.1 mph5.0 kmh 29.88 in1011.9 mb 0.00 in0.0 mm 0.00 in0.0 mm 0.00 in0.0 mm
03:39 AM 55.0°F12.8°C 52.5°F11.4°C 91% 0.7 mph WNW1.1 kmh WNW 3.1 mph5.0 kmh 29.88 in1011.9 mb 0.00 in0.0 mm 0.00 in0.0 mm 0.00 in0.0 mm
03:44 AM 55.0°F12.8°C 52.5°F11.4°C 91% Calm Calm 1.1 mph1.8 kmh 29.88 in1011.9 mb 0.00 in0.0 mm 0.00 in0.0 mm 0.00 in0.0 mm
03:49 AM 55.0°F12.8°C 52.5°F11.4°C 91% 0.9 mph W1.4 kmh W 2.0 mph3.2 kmh 29.88 in1011.9 mb 0.00 in0.0 mm 0.00 in0.0 mm 0.00 in0.0 mm
03:54 AM 55.0°F12.8°C 52.5°F11.4°C 91% 0.9 mph WNW1.4 kmh WNW 3.1 mph5.0 kmh 29.88 in1011.9 mb 0.00 in0.0 mm 0.00 in0.0 mm 0.00 in0.0 mm
03:59 AM 55.0°F12.8°C 52.5°F11.4°C 91% Calm Calm -- 29.88 in1011.9 mb 0.00 in0.0 mm 0.00 in0.0 mm 0.00 in0.0 mm
04:04 AM 55.0°F12.8°C 52.5°F11.4°C 91% Calm Calm -- 29.88 in1011.9 mb 0.00 in0.0 mm 0.00 in0.0 mm 0.00 in0.0 mm
04:09 AM 54.9°F12.7°C 52.3°F11.3°C 91% 1.3 mph SW2.1 kmh SW 2.0 mph3.2 kmh 29.88 in1011.9 mb 0.00 in0.0 mm 0.00 in0.0 mm 0.00 in0.0 mm
04:14 AM 54.9°F12.7°C 52.3°F11.3°C 91% 1.6 mph SW2.6 kmh SW 4.3 mph6.9 kmh 29.88 in1011.9 mb 0.00 in0.0 mm 0.00 in0.0 mm 0.00 in0.0 mm
04:19 AM 54.9°F12.7°C 52.3°F11.3°C 91% 0.9 mph WSW1.4 kmh WSW 3.1 mph5.0 kmh 29.88 in1011.9 mb 0.00 in0.0 mm 0.00 in0.0 mm 0.00 in0.0 mm
04:24 AM 54.7°F12.6°C 52.2°F11.2°C 91% Calm Calm 2.0 mph3.2 kmh 29.88 in1011.9 mb 0.00 in0.0 mm 0.00 in0.0 mm 0.00 in0.0 mm
04:29 AM 54.7°F12.6°C 52.2°F11.2°C 91% Calm Calm 1.1 mph1.8 kmh 29.88 in1011.9 mb 0.00 in0.0 mm 0.00 in0.0 mm 0.00 in0.0 mm
04:34 AM 54.7°F12.6°C 52.2°F11.2°C 91% Calm Calm 1.1 mph1.8 kmh 29.88 in1011.9 mb 0.00 in0.0 mm 0.00 in0.0 mm 0.00 in0.0 mm
04:39 AM 54.7°F12.6°C 52.2°F11.2°C 91% 0.4 mph WSW0.6 kmh WSW 2.0 mph3.2 kmh 29.88 in1011.9 mb 0.00 in0.0 mm 0.00 in0.0 mm 0.00 in0.0 mm
04:44 AM 54.7°F12.6°C 52.2°F11.2°C 91% Calm Calm -- 29.88 in1011.9 mb 0.00 in0.0 mm 0.00 in0.0 mm 0.00 in0.0 mm
04:49 AM 54.7°F12.6°C 52.2°F11.2°C 91% Calm Calm -- 29.88 in1011.9 mb 0.00 in0.0 mm 0.00 in0.0 mm 0.00 in0.0 mm
04:54 AM 54.7°F12.6°C 52.2°F11.2°C 91% Calm Calm 1.1 mph1.8 kmh 29.88 in1011.9 mb 0.00 in0.0 mm 0.00 in0.0 mm 0.00 in0.0 mm
04:59 AM 54.7°F12.6°C 52.2°F11.2°C 91% Calm Calm -- 29.88 in1011.9 mb 0.00 in0.0 mm 0.00 in0.0 mm 0.00 in0.0 mm
05:04 AM 54.7°F12.6°C 52.2°F11.2°C 91% Calm Calm -- 29.88 in1011.9 mb 0.00 in0.0 mm 0.00 in0.0 mm 0.00 in0.0 mm
05:09 AM 54.7°F12.6°C 52.2°F11.2°C 91% Calm Calm -- 29.88 in1011.9 mb 0.00 in0.0 mm 0.00 in0.0 mm 0.00 in0.0 mm
05:14 AM 54.7°F12.6°C 52.2°F11.2°C 91% Calm Calm -- 29.88 in1011.9 mb 0.00 in0.0 mm 0.00 in0.0 mm 0.00 in0.0 mm
05:19 AM 54.7°F12.6°C 52.2°F11.2°C 91% Calm Calm -- 29.88 in1011.9 mb 0.00 in0.0 mm 0.00 in0.0 mm 0.00 in0.0 mm
05:24 AM 54.7°F12.6°C 52.2°F11.2°C 91% 0.2 mph S0.3 kmh S 1.1 mph1.8 kmh 29.87 in1011.5 mb 0.00 in0.0 mm 0.00 in0.0 mm 0.00 in0.0 mm
05:29 AM 54.5°F12.5°C 52.0°F11.1°C 91% Calm Calm 3.1 mph5.0 kmh 29.87 in1011.5 mb 0.00 in0.0 mm 0.00 in0.0 mm 0.00 in0.0 mm
05:34 AM 54.7°F12.6°C 52.2°F11.2°C 91% 0.2 mph SW0.3 kmh SW 1.1 mph1.8 kmh 29.88 in1011.9 mb 0.00 in0.0 mm 0.00 in0.0 mm 0.00 in0.0 mm
05:39 AM 54.7°F12.6°C 52.2°F11.2°C 91% Calm Calm 1.1 mph1.8 kmh 29.88 in1011.9 mb 0.00 in0.0 mm 0.00 in0.0 mm 0.00 in0.0 mm
05:44 AM 54.7°F12.6°C 52.2°F11.2°C 91% Calm Calm -- 29.88 in1011.9 mb 0.00 in0.0 mm 0.00 in0.0 mm 0.00 in0.0 mm
05:49 AM 54.7°F12.6°C 52.2°F11.2°C 91% Calm Calm -- 29.88 in1011.9 mb 0.00 in0.0 mm 0.00 in0.0 mm 0.00 in0.0 mm
05:54 AM 54.7°F12.6°C 52.2°F11.2°C 91% Calm Calm -- 29.88 in1011.9 mb 0.00 in0.0 mm 0.00 in0.0 mm 0.00 in0.0 mm
05:59 AM 54.7°F12.6°C 52.2°F11.2°C 91% 0.4 mph W0.6 kmh W 1.1 mph1.8 kmh 29.88 in1011.9 mb 0.00 in0.0 mm 0.00 in0.0 mm 0.00 in0.0 mm
06:04 AM 54.7°F12.6°C 52.2°F11.2°C 91% 1.6 mph WNW2.6 kmh WNW 3.1 mph5.0 kmh 29.88 in1011.9 mb 0.00 in0.0 mm 0.00 in0.0 mm 0.00 in0.0 mm
06:09 AM 54.7°F12.6°C 52.2°F11.2°C 91% 0.4 mph NW0.6 kmh NW 2.0 mph3.2 kmh 29.88 in1011.9 mb 0.00 in0.0 mm 0.00 in0.0 mm 0.00 in0.0 mm
06:14 AM 54.7°F12.6°C 52.2°F11.2°C 91% Calm Calm 1.1 mph1.8 kmh 29.88 in1011.9 mb 0.00 in0.0 mm 0.00 in0.0 mm 0.00 in0.0 mm
06:19 AM 54.9°F12.7°C 52.3°F11.3°C 91% Calm Calm -- 29.88 in1011.9 mb 0.00 in0.0 mm 0.00 in0.0 mm 0.00 in0.0 mm
06:24 AM 54.9°F12.7°C 52.0°F11.1°C 90% Calm Calm 1.1 mph1.8 kmh 29.88 in1011.9 mb 0.00 in0.0 mm 0.00 in0.0 mm 0.00 in0.0 mm
06:29 AM 55.0°F12.8°C 52.5°F11.4°C 91% Calm Calm -- 29.88 in1011.9 mb 0.00 in0.0 mm 0.00 in0.0 mm 0.00 in0.0 mm
06:34 AM 55.0°F12.8°C 52.2°F11.2°C 90% 0.2 mph NW0.3 kmh NW 2.0 mph3.2 kmh 29.88 in1011.9 mb 0.00 in0.0 mm 0.00 in0.0 mm 0.00 in0.0 mm
06:39 AM 55.2°F12.9°C 52.3°F11.3°C 90% Calm Calm 1.1 mph1.8 kmh 29.89 in1012.2 mb 0.00 in0.0 mm 0.00 in0.0 mm 0.00 in0.0 mm
06:44 AM 55.4°F13.0°C 52.5°F11.4°C 90% Calm Calm -- 29.89 in1012.2 mb 0.00 in0.0 mm 0.00 in0.0 mm 0.00 in0.0 mm
06:49 AM 55.6°F13.1°C 52.7°F11.5°C 90% Calm Calm 1.1 mph1.8 kmh 29.89 in1012.2 mb 0.00 in0.0 mm 0.00 in0.0 mm 0.00 in0.0 mm
06:54 AM 55.6°F13.1°C 52.3°F11.3°C 89% Calm Calm 1.1 mph1.8 kmh 29.89 in1012.2 mb 0.00 in0.0 mm 0.00 in0.0 mm 0.00 in0.0 mm
06:59 AM 55.6°F13.1°C 52.3°F11.3°C 89% Calm Calm -- 29.90 in1012.5 mb 0.00 in0.0 mm 0.00 in0.0 mm 0.00 in0.0 mm
07:04 AM 55.6°F13.1°C 52.3°F11.3°C 89% Calm Calm 1.1 mph1.8 kmh 29.90 in1012.5 mb 0.00 in0.0 mm 0.00 in0.0 mm 0.00 in0.0 mm
07:09 AM 55.8°F13.2°C 52.5°F11.4°C 89% 0.2 mph NW0.3 kmh NW 2.0 mph3.2 kmh 29.90 in1012.5 mb 0.00 in0.0 mm 0.00 in0.0 mm 0.00 in0.0 mm
07:14 AM 55.9°F13.3°C 52.5°F11.4°C 88% Calm Calm 2.0 mph3.2 kmh 29.89 in1012.2 mb 0.00 in0.0 mm 0.00 in0.0 mm 0.00 in0.0 mm
07:19 AM 56.1°F13.4°C 52.7°F11.5°C 88% Calm Calm -- 29.90 in1012.5 mb 0.00 in0.0 mm 0.00 in0.0 mm 0.00 in0.0 mm
07:24 AM 56.1°F13.4°C 52.7°F11.5°C 88% Calm Calm -- 29.90 in1012.5 mb 0.00 in0.0 mm 0.00 in0.0 mm 0.00 in0.0 mm
07:29 AM 56.3°F13.5°C 52.9°F11.6°C 88% Calm Calm -- 29.90 in1012.5 mb 0.00 in0.0 mm 0.00 in0.0 mm 0.00 in0.0 mm
07:34 AM 56.5°F13.6°C 52.7°F11.5°C 87% 2.0 mph W3.2 kmh W 3.1 mph5.0 kmh 29.90 in1012.5 mb 0.00 in0.0 mm 0.00 in0.0 mm 0.00 in0.0 mm
07:39 AM 56.3°F13.5°C 52.5°F11.4°C 87% Calm Calm 3.1 mph5.0 kmh 29.90 in1012.5 mb 0.00 in0.0 mm 0.00 in0.0 mm 0.00 in0.0 mm
07:44 AM 56.7°F13.7°C 52.9°F11.6°C 87% 0.2 mph SW0.3 kmh SW 1.1 mph1.8 kmh 29.90 in1012.5 mb 0.00 in0.0 mm 0.00 in0.0 mm 0.00 in0.0 mm
07:49 AM 56.7°F13.7°C 52.5°F11.4°C 86% 0.4 mph SW0.6 kmh SW 3.1 mph5.0 kmh 29.90 in1012.5 mb 0.00 in0.0 mm 0.00 in0.0 mm 0.00 in0.0 mm
07:54 AM 56.8°F13.8°C 52.3°F11.3°C 85% 0.7 mph SW1.1 kmh SW 2.0 mph3.2 kmh 29.90 in1012.5 mb 0.00 in0.0 mm 0.00 in0.0 mm 0.00 in0.0 mm
07:59 AM 57.0°F13.9°C 52.5°F11.4°C 85% Calm Calm 1.1 mph1.8 kmh 29.90 in1012.5 mb 0.00 in0.0 mm 0.00 in0.0 mm 0.00 in0.0 mm
08:04 AM 57.6°F14.2°C 53.1°F11.7°C 85% Calm Calm 1.1 mph1.8 kmh 29.90 in1012.5 mb 0.00 in0.0 mm 0.00 in0.0 mm 0.00 in0.0 mm
08:09 AM 57.7°F14.3°C 52.9°F11.6°C 84% 0.2 mph ENE0.3 kmh ENE 2.0 mph3.2 kmh 29.90 in1012.5 mb 0.00 in0.0 mm 0.00 in0.0 mm 0.00 in0.0 mm
08:14 AM 58.1°F14.5°C 53.2°F11.8°C 84% 0.2 mph WSW0.3 kmh WSW 1.1 mph1.8 kmh 29.90 in1012.5 mb 0.00 in0.0 mm 0.00 in0.0 mm 0.00 in0.0 mm
08:19 AM 58.6°F14.8°C 53.4°F11.9°C 83% 0.4 mph S0.6 kmh S 2.0 mph3.2 kmh 29.90 in1012.5 mb 0.00 in0.0 mm 0.00 in0.0 mm 0.00 in0.0 mm
08:24 AM 59.4°F15.2°C 53.6°F12.0°C 81% 1.1 mph SW1.8 kmh SW 3.1 mph5.0 kmh 29.90 in1012.5 mb 0.00 in0.0 mm 0.00 in0.0 mm 0.00 in0.0 mm
08:29 AM 59.2°F15.1°C 53.1°F11.7°C 80% 1.1 mph SSW1.8 kmh SSW 4.3 mph6.9 kmh 29.90 in1012.5 mb 0.00 in0.0 mm 0.00 in0.0 mm 0.00 in0.0 mm
08:34 AM 59.4°F15.2°C 52.9°F11.6°C 79% 1.1 mph SW1.8 kmh SW 4.3 mph6.9 kmh 29.90 in1012.5 mb 0.00 in0.0 mm 0.00 in0.0 mm 0.00 in0.0 mm
08:39 AM 59.7°F15.4°C 53.2°F11.8°C 79% 0.2 mph SE0.3 kmh SE 5.4 mph8.7 kmh 29.90 in1012.5 mb 0.00 in0.0 mm 0.00 in0.0 mm 0.00 in0.0 mm
08:44 AM 60.1°F15.6°C 53.2°F11.8°C 78% 1.6 mph SW2.6 kmh SW 4.3 mph6.9 kmh 29.90 in1012.5 mb 0.00 in0.0 mm 0.00 in0.0 mm 0.00 in0.0 mm
08:49 AM 60.4°F15.8°C 53.6°F12.0°C 78% Calm Calm 4.3 mph6.9 kmh 29.90 in1012.5 mb 0.00 in0.0 mm 0.00 in0.0 mm 0.00 in0.0 mm
08:54 AM 61.0°F16.1°C 53.8°F12.1°C 77% 1.1 mph SE1.8 kmh SE 3.1 mph5.0 kmh 29.89 in1012.2 mb 0.00 in0.0 mm 0.00 in0.0 mm 0.00 in0.0 mm
08:59 AM 61.2°F16.2°C 53.6°F12.0°C 76% 0.2 mph NE0.3 kmh NE 4.3 mph6.9 kmh 29.90 in1012.5 mb 0.00 in0.0 mm 0.00 in0.0 mm 0.00 in0.0 mm
09:04 AM 62.1°F16.7°C 54.0°F12.2°C 75% 0.9 mph SE1.4 kmh SE 3.1 mph5.0 kmh 29.89 in1012.2 mb 0.00 in0.0 mm 0.00 in0.0 mm 0.00 in0.0 mm
09:09 AM 63.0°F17.2°C 54.5°F12.5°C 74% 0.2 mph ENE0.3 kmh ENE 3.1 mph5.0 kmh 29.89 in1012.2 mb 0.00 in0.0 mm 0.00 in0.0 mm 0.00 in0.0 mm
09:14 AM 63.3°F17.4°C 53.8°F12.1°C 71% 0.2 mph SE0.3 kmh SE 3.1 mph5.0 kmh 29.89 in1012.2 mb 0.00 in0.0 mm 0.00 in0.0 mm 0.00 in0.0 mm
09:19 AM 63.9°F17.7°C 54.0°F12.2°C 70% 2.2 mph SW3.5 kmh SW 7.4 mph11.9 kmh 29.89 in1012.2 mb 0.00 in0.0 mm 0.00 in0.0 mm 0.00 in0.0 mm
09:24 AM 63.7°F17.6°C 53.2°F11.8°C 69% 1.6 mph W2.6 kmh W 6.3 mph10.1 kmh 29.89 in1012.2 mb 0.00 in0.0 mm 0.00 in0.0 mm 0.00 in0.0 mm
09:29 AM 63.9°F17.7°C 54.0°F12.2°C 70% 2.9 mph S4.7 kmh S 6.3 mph10.1 kmh 29.89 in1012.2 mb 0.00 in0.0 mm 0.00 in0.0 mm 0.00 in0.0 mm
09:34 AM 64.2°F17.9°C 54.3°F12.4°C 70% 2.2 mph NNW3.5 kmh NNW 5.4 mph8.7 kmh 29.89 in1012.2 mb 0.00 in0.0 mm 0.00 in0.0 mm 0.00 in0.0 mm
09:39 AM 64.8°F18.2°C 54.7°F12.6°C 70% 2.0 mph SW3.2 kmh SW 4.3 mph6.9 kmh 29.89 in1012.2 mb 0.00 in0.0 mm 0.00 in0.0 mm 0.00 in0.0 mm
09:44 AM 65.1°F18.4°C 54.0°F12.2°C 67% 5.8 mph SW9.3 kmh SW 10.5 mph16.9 kmh 29.89 in1012.2 mb 0.00 in0.0 mm 0.00 in0.0 mm 0.00 in0.0 mm
09:49 AM 64.9°F18.3°C 54.1°F12.3°C 68% 5.4 mph S8.7 kmh S 10.5 mph16.9 kmh 29.89 in1012.2 mb 0.00 in0.0 mm 0.00 in0.0 mm 0.00 in0.0 mm
09:54 AM 64.6°F18.1°C 54.1°F12.3°C 69% 5.4 mph SSW8.7 kmh SSW 10.5 mph16.9 kmh 29.89 in1012.2 mb 0.00 in0.0 mm 0.00 in0.0 mm 0.00 in0.0 mm
09:59 AM 64.8°F18.2°C 54.7°F12.6°C 70% 2.9 mph WSW4.7 kmh WSW 9.6 mph15.4 kmh 29.89 in1012.2 mb 0.00 in0.0 mm 0.00 in0.0 mm 0.00 in0.0 mm
10:04 AM 64.9°F18.3°C 54.5°F12.5°C 69% 3.4 mph W5.5 kmh W 8.5 mph13.7 kmh 29.89 in1012.2 mb 0.00 in0.0 mm 0.00 in0.0 mm 0.00 in0.0 mm
10:09 AM 65.5°F18.6°C 54.3°F12.4°C 67% 5.1 mph WSW8.2 kmh WSW 9.6 mph15.4 kmh 29.89 in1012.2 mb 0.00 in0.0 mm 0.00 in0.0 mm 0.00 in0.0 mm
10:14 AM 65.3°F18.5°C 54.1°F12.3°C 67% 6.0 mph SW9.7 kmh SW 10.5 mph16.9 kmh 29.89 in1012.2 mb 0.00 in0.0 mm 0.00 in0.0 mm 0.00 in0.0 mm
10:19 AM 65.3°F18.5°C 53.6°F12.0°C 66% 6.5 mph SSW10.5 kmh SSW -- 29.89 in1012.2 mb 0.00 in0.0 mm 0.00 in0.0 mm 0.00 in0.0 mm
10:24 AM 65.8°F18.8°C 54.1°F12.3°C 66% 7.8 mph SW12.6 kmh SW 12.8 mph20.6 kmh 29.88 in1011.9 mb 0.00 in0.0 mm 0.00 in0.0 mm 0.00 in0.0 mm
10:29 AM 65.1°F18.4°C 54.0°F12.2°C 67% 6.3 mph SW10.1 kmh SW 12.8 mph20.6 kmh 29.88 in1011.9 mb 0.00 in0.0 mm 0.00 in0.0 mm 0.00 in0.0 mm
10:34 AM 64.9°F18.3°C 53.2°F11.8°C 66% 6.3 mph S10.1 kmh S 14.8 mph23.8 kmh 29.88 in1011.9 mb 0.00 in0.0 mm 0.00 in0.0 mm 0.00 in0.0 mm
10:39 AM 65.5°F18.6°C 53.8°F12.1°C 66% 4.7 mph W7.6 kmh W 10.5 mph16.9 kmh 29.88 in1011.9 mb 0.00 in0.0 mm 0.00 in0.0 mm 0.00 in0.0 mm
10:44 AM 64.9°F18.3°C 53.8°F12.1°C 67% 5.1 mph W8.2 kmh W 10.5 mph16.9 kmh 29.88 in1011.9 mb 0.00 in0.0 mm 0.00 in0.0 mm 0.00 in0.0 mm
10:49 AM 64.6°F18.1°C 53.4°F11.9°C 67% 4.7 mph WSW7.6 kmh WSW 10.5 mph16.9 kmh 29.88 in1011.9 mb 0.00 in0.0 mm 0.00 in0.0 mm 0.00 in0.0 mm
10:54 AM 65.3°F18.5°C 53.6°F12.0°C 66% 4.0 mph WSW6.4 kmh WSW 9.6 mph15.4 kmh 29.88 in1011.9 mb 0.00 in0.0 mm 0.00 in0.0 mm 0.00 in0.0 mm
10:59 AM 65.1°F18.4°C 54.3°F12.4°C 68% 1.8 mph WSW2.9 kmh WSW 9.6 mph15.4 kmh 29.88 in1011.9 mb 0.00 in0.0 mm 0.00 in0.0 mm 0.00 in0.0 mm
11:04 AM 65.5°F18.6°C 53.1°F11.7°C 64% 5.4 mph WNW8.7 kmh WNW 10.5 mph16.9 kmh 29.88 in1011.9 mb 0.00 in0.0 mm 0.00 in0.0 mm 0.00 in0.0 mm
11:09 AM 64.9°F18.3°C 53.2°F11.8°C 66% 3.6 mph SW5.8 kmh SW 9.6 mph15.4 kmh 29.88 in1011.9 mb 0.00 in0.0 mm 0.00 in0.0 mm 0.00 in0.0 mm
11:14 AM 66.2°F19.0°C 54.1°F12.3°C 65% 3.4 mph SW5.5 kmh SW 8.5 mph13.7 kmh 29.88 in1011.9 mb 0.00 in0.0 mm 0.00 in0.0 mm 0.00 in0.0 mm
11:19 AM 66.7°F19.3°C 53.8°F12.1°C 63% 3.4 mph WNW5.5 kmh WNW 6.3 mph10.1 kmh 29.87 in1011.5 mb 0.00 in0.0 mm 0.00 in0.0 mm 0.00 in0.0 mm
11:24 AM 66.7°F19.3°C 52.3°F11.3°C 60% 4.0 mph W6.4 kmh W 8.5 mph13.7 kmh 29.87 in1011.5 mb 0.00 in0.0 mm 0.00 in0.0 mm 0.00 in0.0 mm
11:29 AM 66.7°F19.3°C 53.8°F12.1°C 63% 6.0 mph SW9.7 kmh SW 8.5 mph13.7 kmh 29.87 in1011.5 mb 0.00 in0.0 mm 0.00 in0.0 mm 0.00 in0.0 mm
11:34 AM 67.3°F19.6°C 53.8°F12.1°C 62% 3.1 mph W5.0 kmh W 9.6 mph15.4 kmh 29.87 in1011.5 mb 0.00 in0.0 mm 0.00 in0.0 mm 0.00 in0.0 mm
11:39 AM 66.7°F19.3°C 52.9°F11.6°C 61% 4.7 mph SW7.6 kmh SW 10.5 mph16.9 kmh 29.87 in1011.5 mb 0.00 in0.0 mm 0.00 in0.0 mm 0.00 in0.0 mm
11:45 AM 67.1°F19.5°C 53.6°F12.0°C 62% 5.4 mph SW8.7 kmh SW 9.6 mph15.4 kmh 29.87 in1011.5 mb 0.00 in0.0 mm 0.00 in0.0 mm 0.00 in0.0 mm
11:50 AM 67.1°F19.5°C 54.1°F12.3°C 63% 5.6 mph WSW9.0 kmh WSW 10.5 mph16.9 kmh 29.87 in1011.5 mb 0.00 in0.0 mm 0.00 in0.0 mm 0.00 in0.0 mm
11:55 AM 66.9°F19.4°C 53.1°F11.7°C 61% 6.5 mph W10.5 kmh W 9.6 mph15.4 kmh 29.87 in1011.5 mb 0.00 in0.0 mm 0.00 in0.0 mm 0.00 in0.0 mm
12:00 PM 66.9°F19.4°C 54.0°F12.2°C 63% 5.1 mph WSW8.2 kmh WSW 11.6 mph18.7 kmh 29.87 in1011.5 mb 0.00 in0.0 mm 0.00 in0.0 mm 0.00 in0.0 mm
12:05 PM 66.9°F19.4°C 53.4°F11.9°C 62% 5.4 mph WNW8.7 kmh WNW 10.5 mph16.9 kmh 29.87 in1011.5 mb 0.00 in0.0 mm 0.00 in0.0 mm 0.00 in0.0 mm
12:10 PM 66.9°F19.4°C 54.0°F12.2°C 63% 6.0 mph W9.7 kmh W 11.6 mph18.7 kmh 29.87 in1011.5 mb 0.00 in0.0 mm 0.00 in0.0 mm 0.00 in0.0 mm
12:15 PM 66.6°F19.2°C 53.6°F12.0°C 63% 5.8 mph WSW9.3 kmh WSW 10.5 mph16.9 kmh 29.87 in1011.5 mb 0.00 in0.0 mm 0.00 in0.0 mm 0.00 in0.0 mm
12:20 PM 65.8°F18.8°C 52.9°F11.6°C 63% 6.7 mph SW10.8 kmh SW 11.6 mph18.7 kmh 29.87 in1011.5 mb 0.00 in0.0 mm 0.00 in0.0 mm 0.00 in0.0 mm
12:25 PM 65.7°F18.7°C 53.6°F12.0°C 65% 4.9 mph SW7.9 kmh SW 8.5 mph13.7 kmh 29.87 in1011.5 mb 0.00 in0.0 mm 0.00 in0.0 mm 0.00 in0.0 mm
12:30 PM 65.8°F18.8°C 53.2°F11.8°C 64% 6.0 mph SSW9.7 kmh SSW 12.8 mph20.6 kmh 29.86 in1011.2 mb 0.00 in0.0 mm 0.00 in0.0 mm 0.00 in0.0 mm
12:35 PM 65.7°F18.7°C 53.2°F11.8°C 64% 6.9 mph SW11.1 kmh SW 12.8 mph20.6 kmh 29.86 in1011.2 mb 0.00 in0.0 mm 0.00 in0.0 mm 0.00 in0.0 mm
12:40 PM 65.7°F18.7°C 53.2°F11.8°C 64% 5.6 mph SSW9.0 kmh SSW 9.6 mph15.4 kmh 29.86 in1011.2 mb 0.00 in0.0 mm 0.00 in0.0 mm 0.00 in0.0 mm
12:45 PM 66.6°F19.2°C 52.7°F11.5°C 61% 5.4 mph WSW8.7 kmh WSW 9.6 mph15.4 kmh 29.86 in1011.2 mb 0.00 in0.0 mm 0.00 in0.0 mm 0.00 in0.0 mm
12:50 PM 66.0°F18.9°C 53.1°F11.7°C 63% 6.7 mph SW10.8 kmh SW 13.9 mph22.4 kmh 29.86 in1011.2 mb 0.00 in0.0 mm 0.00 in0.0 mm 0.00 in0.0 mm
12:55 PM 66.7°F19.3°C 53.2°F11.8°C 62% 5.4 mph S8.7 kmh S 11.6 mph18.7 kmh 29.86 in1011.2 mb 0.00 in0.0 mm 0.00 in0.0 mm 0.00 in0.0 mm
01:00 PM 66.6°F19.2°C 53.6°F12.0°C 63% 1.1 mph SW1.8 kmh SW 10.5 mph16.9 kmh 29.86 in1011.2 mb 0.00 in0.0 mm 0.00 in0.0 mm 0.00 in0.0 mm
01:05 PM 66.4°F19.1°C 52.9°F11.6°C 62% 5.1 mph SSW8.2 kmh SSW 13.9 mph22.4 kmh 29.85 in1010.8 mb 0.00 in0.0 mm 0.00 in0.0 mm 0.00 in0.0 mm
01:10 PM 66.4°F19.1°C 53.4°F11.9°C 63% 6.9 mph SW11.1 kmh SW 11.6 mph18.7 kmh 29.85 in1010.8 mb 0.00 in0.0 mm 0.00 in0.0 mm 0.00 in0.0 mm
01:15 PM 66.0°F18.9°C 53.1°F11.7°C 63% 8.5 mph SW13.7 kmh SW 12.8 mph20.6 kmh 29.85 in1010.8 mb 0.00 in0.0 mm 0.00 in0.0 mm 0.00 in0.0 mm
01:20 PM 66.6°F19.2°C 53.6°F12.0°C 63% 7.4 mph SSW11.9 kmh SSW 11.6 mph18.7 kmh 29.85 in1010.8 mb 0.00 in0.0 mm 0.00 in0.0 mm 0.00 in0.0 mm
01:25 PM 66.4°F19.1°C 53.4°F11.9°C 63% 7.6 mph WSW12.2 kmh WSW 11.6 mph18.7 kmh 29.85 in1010.8 mb 0.00 in0.0 mm 0.00 in0.0 mm 0.00 in0.0 mm
01:30 PM 65.8°F18.8°C 53.8°F12.1°C 65% 7.2 mph SW11.6 kmh SW 13.9 mph22.4 kmh 29.85 in1010.8 mb 0.00 in0.0 mm 0.00 in0.0 mm 0.00 in0.0 mm
01:35 PM 65.7°F18.7°C 53.6°F12.0°C 65% 8.1 mph SW13.0 kmh SW 13.9 mph22.4 kmh 29.85 in1010.8 mb 0.00 in0.0 mm 0.00 in0.0 mm 0.00 in0.0 mm
01:40 PM 65.3°F18.5°C 53.2°F11.8°C 65% 7.4 mph WSW11.9 kmh WSW 13.9 mph22.4 kmh 29.85 in1010.8 mb 0.00 in0.0 mm 0.00 in0.0 mm 0.00 in0.0 mm
01:45 PM 65.7°F18.7°C 53.6°F12.0°C 65% 6.9 mph SE11.1 kmh SE 10.5 mph16.9 kmh 29.84 in1010.5 mb 0.00 in0.0 mm 0.00 in0.0 mm 0.00 in0.0 mm
01:50 PM 65.1°F18.4°C 53.1°F11.7°C 65% 7.8 mph S12.6 kmh S 13.9 mph22.4 kmh 29.84 in1010.5 mb 0.00 in0.0 mm 0.00 in0.0 mm 0.00 in0.0 mm
01:55 PM 64.9°F18.3°C 52.9°F11.6°C 65% 8.3 mph SW13.4 kmh SW 13.9 mph22.4 kmh 29.84 in1010.5 mb 0.00 in0.0 mm 0.00 in0.0 mm 0.00 in0.0 mm
02:00 PM 65.1°F18.4°C 53.4°F11.9°C 66% 7.8 mph SW12.6 kmh SW 14.8 mph23.8 kmh 29.84 in1010.5 mb 0.00 in0.0 mm 0.00 in0.0 mm 0.00 in0.0 mm
02:05 PM 64.9°F18.3°C 53.2°F11.8°C 66% 7.4 mph SSW11.9 kmh SSW 14.8 mph23.8 kmh 29.84 in1010.5 mb 0.00 in0.0 mm 0.00 in0.0 mm 0.00 in0.0 mm
02:10 PM 64.9°F18.3°C 52.9°F11.6°C 65% 9.4 mph SW15.1 kmh SW 14.8 mph23.8 kmh 29.84 in1010.5 mb 0.00 in0.0 mm 0.00 in0.0 mm 0.00 in0.0 mm
02:15 PM 64.8°F18.2°C 53.1°F11.7°C 66% 8.7 mph SSE14.0 kmh SSE 12.8 mph20.6 kmh 29.84 in1010.5 mb 0.00 in0.0 mm 0.00 in0.0 mm 0.00 in0.0 mm
02:20 PM 64.6°F18.1°C 53.4°F11.9°C 67% 7.8 mph SW12.6 kmh SW 14.8 mph23.8 kmh 29.84 in1010.5 mb 0.00 in0.0 mm 0.00 in0.0 mm 0.00 in0.0 mm
02:25 PM 64.0°F17.8°C 52.9°F11.6°C 67% 6.3 mph SW10.1 kmh SW 13.9 mph22.4 kmh 29.84 in1010.5 mb 0.00 in0.0 mm 0.00 in0.0 mm 0.00 in0.0 mm
02:30 PM 63.7°F17.6°C 52.9°F11.6°C 68% 6.5 mph SW10.5 kmh SW 12.8 mph20.6 kmh 29.84 in1010.5 mb 0.00 in0.0 mm 0.00 in0.0 mm 0.00 in0.0 mm
02:35 PM 63.9°F17.7°C 53.1°F11.7°C 68% 6.5 mph SW10.5 kmh SW 14.8 mph23.8 kmh 29.84 in1010.5 mb 0.00 in0.0 mm 0.00 in0.0 mm 0.00 in0.0 mm
02:40 PM 63.7°F17.6°C 52.9°F11.6°C 68% 7.8 mph SW12.6 kmh SW 12.8 mph20.6 kmh 29.84 in1010.5 mb 0.00 in0.0 mm 0.00 in0.0 mm 0.00 in0.0 mm
02:45 PM 63.9°F17.7°C 53.1°F11.7°C 68% 5.6 mph S9.0 kmh S 10.5 mph16.9 kmh 29.83 in1010.2 mb 0.00 in0.0 mm 0.00 in0.0 mm 0.00 in0.0 mm
02:50 PM 63.7°F17.6°C 52.5°F11.4°C 67% 7.4 mph SW11.9 kmh SW 11.6 mph18.7 kmh 29.83 in1010.2 mb 0.00 in0.0 mm 0.00 in0.0 mm 0.00 in0.0 mm
02:55 PM 64.0°F17.8°C 53.2°F11.8°C 68% 4.9 mph SW7.9 kmh SW 10.5 mph16.9 kmh 29.83 in1010.2 mb 0.00 in0.0 mm 0.00 in0.0 mm 0.00 in0.0 mm
03:00 PM 63.5°F17.5°C 52.3°F11.3°C 67% 6.5 mph SW10.5 kmh SW 11.6 mph18.7 kmh 29.83 in1010.2 mb 0.00 in0.0 mm 0.00 in0.0 mm 0.00 in0.0 mm
03:05 PM 63.1°F17.3°C 52.3°F11.3°C 68% 6.3 mph SW10.1 kmh SW 9.6 mph15.4 kmh 29.84 in1010.5 mb 0.00 in0.0 mm 0.00 in0.0 mm 0.00 in0.0 mm
03:10 PM 63.0°F17.2°C 52.2°F11.2°C 68% 6.3 mph SW10.1 kmh SW 14.8 mph23.8 kmh 29.84 in1010.5 mb 0.00 in0.0 mm 0.00 in0.0 mm 0.00 in0.0 mm
03:15 PM 62.8°F17.1°C 52.9°F11.6°C 70% 5.4 mph SW8.7 kmh SW 14.8 mph23.8 kmh 29.83 in1010.2 mb 0.00 in0.0 mm 0.00 in0.0 mm 0.00 in0.0 mm
03:20 PM 63.0°F17.2°C 52.2°F11.2°C 68% 6.3 mph SW10.1 kmh SW 10.5 mph16.9 kmh 29.84 in1010.5 mb 0.00 in0.0 mm 0.00 in0.0 mm 0.00 in0.0 mm
03:25 PM 62.6°F17.0°C 52.3°F11.3°C 69% 6.5 mph WSW10.5 kmh WSW 10.5 mph16.9 kmh 29.84 in1010.5 mb 0.00 in0.0 mm 0.00 in0.0 mm 0.00 in0.0 mm
03:30 PM 62.2°F16.8°C 52.3°F11.3°C 70% 4.5 mph SW7.2 kmh SW 11.6 mph18.7 kmh 29.84 in1010.5 mb 0.00 in0.0 mm 0.00 in0.0 mm 0.00 in0.0 mm
03:35 PM 63.0°F17.2°C 53.1°F11.7°C 70% 4.5 mph SW7.2 kmh SW 9.6 mph15.4 kmh 29.83 in1010.2 mb 0.00 in0.0 mm 0.00 in0.0 mm 0.00 in0.0 mm
03:40 PM 63.0°F17.2°C 52.2°F11.2°C 68% 4.7 mph W7.6 kmh W 10.5 mph16.9 kmh 29.83 in1010.2 mb 0.00 in0.0 mm 0.00 in0.0 mm 0.00 in0.0 mm
03:45 PM 62.8°F17.1°C 52.5°F11.4°C 69% 5.1 mph W8.2 kmh W 8.5 mph13.7 kmh 29.83 in1010.2 mb 0.00 in0.0 mm 0.00 in0.0 mm 0.00 in0.0 mm
03:50 PM 62.4°F16.9°C 52.2°F11.2°C 69% 6.0 mph WSW9.7 kmh WSW 10.5 mph16.9 kmh 29.83 in1010.2 mb 0.00 in0.0 mm 0.00 in0.0 mm 0.00 in0.0 mm
03:55 PM 62.4°F16.9°C 52.2°F11.2°C 69% 5.6 mph SW9.0 kmh SW 9.6 mph15.4 kmh 29.83 in1010.2 mb 0.00 in0.0 mm 0.00 in0.0 mm 0.00 in0.0 mm
04:00 PM 62.4°F16.9°C 52.9°F11.6°C 71% 5.1 mph SSW8.2 kmh SSW 9.6 mph15.4 kmh 29.83 in1010.2 mb 0.00 in0.0 mm 0.00 in0.0 mm 0.00 in0.0 mm
04:05 PM 62.2°F16.8°C 53.1°F11.7°C 72% 3.1 mph SW5.0 kmh SW 11.6 mph18.7 kmh 29.83 in1010.2 mb 0.00 in0.0 mm 0.00 in0.0 mm 0.00 in0.0 mm
04:10 PM 63.1°F17.3°C 53.2°F11.8°C 70% 3.4 mph SW5.5 kmh SW 7.4 mph11.9 kmh 29.83 in1010.2 mb 0.00 in0.0 mm 0.00 in0.0 mm 0.00 in0.0 mm
04:15 PM 63.0°F17.2°C 52.2°F11.2°C 68% 4.9 mph SW7.9 kmh SW 8.5 mph13.7 kmh 29.83 in1010.2 mb 0.00 in0.0 mm 0.00 in0.0 mm 0.00 in0.0 mm
04:20 PM 63.0°F17.2°C 52.2°F11.2°C 68% 5.6 mph SW9.0 kmh SW 8.5 mph13.7 kmh 29.83 in1010.2 mb 0.00 in0.0 mm 0.00 in0.0 mm 0.00 in0.0 mm
04:25 PM 62.4°F16.9°C 52.5°F11.4°C 70% 2.5 mph WSW4.0 kmh WSW 7.4 mph11.9 kmh 29.83 in1010.2 mb 0.00 in0.0 mm 0.00 in0.0 mm 0.00 in0.0 mm
04:30 PM 62.8°F17.1°C 52.5°F11.4°C 69% 5.8 mph SSW9.3 kmh SSW 10.5 mph16.9 kmh 29.83 in1010.2 mb 0.00 in0.0 mm 0.00 in0.0 mm 0.00 in0.0 mm
04:35 PM 62.2°F16.8°C 52.3°F11.3°C 70% 5.1 mph S8.2 kmh S 10.5 mph16.9 kmh 29.83 in1010.2 mb 0.00 in0.0 mm 0.00 in0.0 mm 0.00 in0.0 mm
04:40 PM 62.2°F16.8°C 52.3°F11.3°C 70% 3.6 mph SW5.8 kmh SW 7.4 mph11.9 kmh 29.82 in1009.8 mb 0.00 in0.0 mm 0.00 in0.0 mm 0.00 in0.0 mm
04:45 PM 62.1°F16.7°C 52.5°F11.4°C 71% 4.7 mph SW7.6 kmh SW 7.4 mph11.9 kmh 29.83 in1010.2 mb 0.00 in0.0 mm 0.00 in0.0 mm 0.00 in0.0 mm
04:50 PM 62.1°F16.7°C 52.2°F11.2°C 70% 4.7 mph SSW7.6 kmh SSW 8.5 mph13.7 kmh 29.83 in1010.2 mb 0.00 in0.0 mm 0.00 in0.0 mm 0.00 in0.0 mm
04:55 PM 62.2°F16.8°C 52.3°F11.3°C 70% 4.0 mph SW6.4 kmh SW 7.4 mph11.9 kmh 29.83 in1010.2 mb 0.00 in0.0 mm 0.00 in0.0 mm 0.00 in0.0 mm
05:00 PM 62.1°F16.7°C 52.2°F11.2°C 70% 4.9 mph SW7.9 kmh SW 8.5 mph13.7 kmh 29.82 in1009.8 mb 0.00 in0.0 mm 0.00 in0.0 mm 0.00 in0.0 mm
05:05 PM 61.5°F16.4°C 52.0°F11.1°C 71% 4.0 mph WSW6.4 kmh WSW 8.5 mph13.7 kmh 29.82 in1009.8 mb 0.00 in0.0 mm 0.00 in0.0 mm 0.00 in0.0 mm
05:10 PM 61.9°F16.6°C 52.3°F11.3°C 71% 3.6 mph W5.8 kmh W 6.3 mph10.1 kmh 29.82 in1009.8 mb 0.00 in0.0 mm 0.00 in0.0 mm 0.00 in0.0 mm
05:15 PM 61.3°F16.3°C 51.8°F11.0°C 71% 5.1 mph WSW8.2 kmh WSW 8.5 mph13.7 kmh 29.82 in1009.8 mb 0.00 in0.0 mm 0.00 in0.0 mm 0.00 in0.0 mm
05:20 PM 60.8°F16.0°C 51.8°F11.0°C 72% 4.5 mph SW7.2 kmh SW 7.4 mph11.9 kmh 29.82 in1009.8 mb 0.00 in0.0 mm 0.00 in0.0 mm 0.00 in0.0 mm
05:25 PM 60.4°F15.8°C 51.8°F11.0°C 73% 3.8 mph SW6.1 kmh SW 6.3 mph10.1 kmh 29.82 in1009.8 mb 0.00 in0.0 mm 0.00 in0.0 mm 0.00 in0.0 mm
05:30 PM 60.1°F15.6°C 51.8°F11.0°C 74% 0.9 mph SW1.4 kmh SW 5.4 mph8.7 kmh 29.82 in1009.8 mb 0.00 in0.0 mm 0.00 in0.0 mm 0.00 in0.0 mm
05:35 PM 59.7°F15.4°C 51.4°F10.8°C 74% 3.4 mph SW5.5 kmh SW 7.4 mph11.9 kmh 29.82 in1009.8 mb 0.00 in0.0 mm 0.00 in0.0 mm 0.00 in0.0 mm
05:40 PM 59.4°F15.2°C 51.8°F11.0°C 76% 2.7 mph WSW4.3 kmh WSW 6.3 mph10.1 kmh 29.82 in1009.8 mb 0.00 in0.0 mm 0.00 in0.0 mm 0.00 in0.0 mm
05:45 PM 59.0°F15.0°C 51.8°F11.0°C 77% 2.9 mph SW4.7 kmh SW 6.3 mph10.1 kmh 29.82 in1009.8 mb 0.00 in0.0 mm 0.00 in0.0 mm 0.00 in0.0 mm
05:50 PM 58.6°F14.8°C 51.4°F10.8°C 77% 3.6 mph WSW5.8 kmh WSW 6.3 mph10.1 kmh 29.82 in1009.8 mb 0.00 in0.0 mm 0.00 in0.0 mm 0.00 in0.0 mm
05:55 PM 58.3°F14.6°C 51.4°F10.8°C 78% 2.5 mph SSW4.0 kmh SSW 7.4 mph11.9 kmh 29.82 in1009.8 mb 0.00 in0.0 mm 0.00 in0.0 mm 0.00 in0.0 mm
06:00 PM 58.3°F14.6°C 51.8°F11.0°C 79% 3.1 mph SW5.0 kmh SW 5.4 mph8.7 kmh 29.82 in1009.8 mb 0.00 in0.0 mm 0.00 in0.0 mm 0.00 in0.0 mm
06:05 PM 57.9°F14.4°C 51.4°F10.8°C 79% 2.9 mph SW4.7 kmh SW 6.3 mph10.1 kmh 29.82 in1009.8 mb 0.00 in0.0 mm 0.00 in0.0 mm 0.00 in0.0 mm
06:10 PM 57.6°F14.2°C 51.4°F10.8°C 80% 2.9 mph SSW4.7 kmh SSW 7.4 mph11.9 kmh 29.82 in1009.8 mb 0.00 in0.0 mm 0.00 in0.0 mm 0.00 in0.0 mm
06:15 PM 57.4°F14.1°C 51.6°F10.9°C 81% 3.1 mph SW5.0 kmh SW 5.4 mph8.7 kmh 29.82 in1009.8 mb 0.00 in0.0 mm 0.00 in0.0 mm 0.00 in0.0 mm
06:20 PM 57.4°F14.1°C 51.6°F10.9°C 81% 2.7 mph SW4.3 kmh SW 6.3 mph10.1 kmh 29.83 in1010.2 mb 0.00 in0.0 mm 0.00 in0.0 mm 0.00 in0.0 mm
06:25 PM 57.2°F14.0°C 51.8°F11.0°C 82% 2.5 mph WSW4.0 kmh WSW 7.4 mph11.9 kmh 29.83 in1010.2 mb 0.00 in0.0 mm 0.00 in0.0 mm 0.00 in0.0 mm
06:30 PM 57.0°F13.9°C 51.6°F10.9°C 82% 3.4 mph SSW5.5 kmh SSW 6.3 mph10.1 kmh 29.83 in1010.2 mb 0.00 in0.0 mm 0.00 in0.0 mm 0.00 in0.0 mm
06:35 PM 57.0°F13.9°C 51.6°F10.9°C 82% 3.6 mph SW5.8 kmh SW 6.3 mph10.1 kmh 29.83 in1010.2 mb 0.00 in0.0 mm 0.00 in0.0 mm 0.00 in0.0 mm
06:40 PM 56.8°F13.8°C 51.4°F10.8°C 82% 2.9 mph SW4.7 kmh SW 6.3 mph10.1 kmh 29.83 in1010.2 mb 0.00 in0.0 mm 0.00 in0.0 mm 0.00 in0.0 mm
06:45 PM 56.8°F13.8°C 51.8°F11.0°C 83% 0.7 mph S1.1 kmh S 4.3 mph6.9 kmh 29.84 in1010.5 mb 0.00 in0.0 mm 0.00 in0.0 mm 0.00 in0.0 mm
06:50 PM 56.8°F13.8°C 51.8°F11.0°C 83% 1.3 mph SSW2.1 kmh SSW 4.3 mph6.9 kmh 29.84 in1010.5 mb 0.00 in0.0 mm 0.00 in0.0 mm 0.00 in0.0 mm
06:55 PM 56.7°F13.7°C 51.6°F10.9°C 83% 1.8 mph SW2.9 kmh SW 3.1 mph5.0 kmh 29.84 in1010.5 mb 0.00 in0.0 mm 0.00 in0.0 mm 0.00 in0.0 mm
07:00 PM 56.5°F13.6°C 51.4°F10.8°C 83% 2.0 mph SW3.2 kmh SW 4.3 mph6.9 kmh 29.84 in1010.5 mb 0.00 in0.0 mm 0.00 in0.0 mm 0.00 in0.0 mm
07:05 PM 56.5°F13.6°C 51.4°F10.8°C 83% 1.1 mph SW1.8 kmh SW 4.3 mph6.9 kmh 29.84 in1010.5 mb 0.00 in0.0 mm 0.00 in0.0 mm 0.00 in0.0 mm
07:10 PM 56.5°F13.6°C 51.4°F10.8°C 83% 2.2 mph SW3.5 kmh SW 4.3 mph6.9 kmh 29.84 in1010.5 mb 0.00 in0.0 mm 0.00 in0.0 mm 0.00 in0.0 mm
07:15 PM 56.3°F13.5°C 51.4°F10.8°C 84% 1.8 mph SW2.9 kmh SW 3.1 mph5.0 kmh 29.84 in1010.5 mb 0.00 in0.0 mm 0.00 in0.0 mm 0.00 in0.0 mm
07:20 PM 56.3°F13.5°C 51.4°F10.8°C 84% 1.1 mph SW1.8 kmh SW 3.1 mph5.0 kmh 29.84 in1010.5 mb 0.00 in0.0 mm 0.00 in0.0 mm 0.00 in0.0 mm
07:25 PM 56.3°F13.5°C 51.4°F10.8°C 84% Calm Calm 3.1 mph5.0 kmh 29.84 in1010.5 mb 0.00 in0.0 mm 0.00 in0.0 mm 0.00 in0.0 mm
07:30 PM 56.1°F13.4°C 51.4°F10.8°C 84% 1.1 mph SW1.8 kmh SW 3.1 mph5.0 kmh 29.84 in1010.5 mb 0.00 in0.0 mm 0.00 in0.0 mm 0.00 in0.0 mm
07:35 PM 56.1°F13.4°C 51.4°F10.8°C 84% Calm Calm -- 29.85 in1010.8 mb 0.00 in0.0 mm 0.00 in0.0 mm 0.00 in0.0 mm
07:40 PM 56.1°F13.4°C 51.4°F10.8°C 84% 0.4 mph SSW0.6 kmh SSW 2.0 mph3.2 kmh 29.85 in1010.8 mb 0.00 in0.0 mm 0.00 in0.0 mm 0.00 in0.0 mm
07:45 PM 56.1°F13.4°C 51.4°F10.8°C 84% 0.4 mph WSW0.6 kmh WSW 2.0 mph3.2 kmh 29.85 in1010.8 mb 0.00 in0.0 mm 0.00 in0.0 mm 0.00 in0.0 mm
07:50 PM 55.9°F13.3°C 51.3°F10.7°C 84% 0.7 mph SE1.1 kmh SE 2.0 mph3.2 kmh 29.85 in1010.8 mb 0.00 in0.0 mm 0.00 in0.0 mm 0.00 in0.0 mm
07:55 PM 55.9°F13.3°C 51.3°F10.7°C 84% Calm Calm 1.1 mph1.8 kmh 29.85 in1010.8 mb 0.00 in0.0 mm 0.00 in0.0 mm 0.00 in0.0 mm
08:00 PM 55.8°F13.2°C 51.1°F10.6°C 84% Calm Calm -- 29.85 in1010.8 mb 0.00 in0.0 mm 0.00 in0.0 mm 0.00 in0.0 mm
08:05 PM 55.8°F13.2°C 51.3°F10.7°C 85% Calm Calm -- 29.85 in1010.8 mb 0.00 in0.0 mm 0.00 in0.0 mm 0.00 in0.0 mm
08:10 PM 55.6°F13.1°C 51.1°F10.6°C 85% 0.4 mph SE0.6 kmh SE 2.0 mph3.2 kmh 29.85 in1010.8 mb 0.00 in0.0 mm 0.00 in0.0 mm 0.00 in0.0 mm
08:15 PM 55.6°F13.1°C 51.1°F10.6°C 85% Calm Calm 2.0 mph3.2 kmh 29.85 in1010.8 mb 0.00 in0.0 mm 0.00 in0.0 mm 0.00 in0.0 mm
08:20 PM 55.6°F13.1°C 51.1°F10.6°C 85% Calm Calm -- 29.85 in1010.8 mb 0.00 in0.0 mm 0.00 in0.0 mm 0.00 in0.0 mm
08:25 PM 55.4°F13.0°C 50.9°F10.5°C 85% Calm Calm 1.1 mph1.8 kmh 29.85 in1010.8 mb 0.00 in0.0 mm 0.00 in0.0 mm 0.00 in0.0 mm
08:30 PM 55.4°F13.0°C 51.3°F10.7°C 86% 0.2 mph SW0.3 kmh SW 1.1 mph1.8 kmh 29.85 in1010.8 mb 0.00 in0.0 mm 0.00 in0.0 mm 0.00 in0.0 mm
08:35 PM 55.4°F13.0°C 50.9°F10.5°C 85% Calm Calm 2.0 mph3.2 kmh 29.85 in1010.8 mb 0.00 in0.0 mm 0.00 in0.0 mm 0.00 in0.0 mm
08:40 PM 55.2°F12.9°C 50.7°F10.4°C 85% Calm Calm 1.1 mph1.8 kmh 29.85 in1010.8 mb 0.00 in0.0 mm 0.00 in0.0 mm 0.00 in0.0 mm
08:45 PM 55.2°F12.9°C 50.7°F10.4°C 85% Calm Calm -- 29.85 in1010.8 mb 0.00 in0.0 mm 0.00 in0.0 mm 0.00 in0.0 mm
08:50 PM 55.0°F12.8°C 50.5°F10.3°C 85% Calm Calm -- 29.84 in1010.5 mb 0.00 in0.0 mm 0.00 in0.0 mm 0.00 in0.0 mm
08:55 PM 55.0°F12.8°C 50.9°F10.5°C 86% Calm Calm -- 29.85 in1010.8 mb 0.00 in0.0 mm 0.00 in0.0 mm 0.00 in0.0 mm
09:00 PM 54.9°F12.7°C 50.7°F10.4°C 86% Calm Calm -- 29.85 in1010.8 mb 0.00 in0.0 mm 0.00 in0.0 mm 0.00 in0.0 mm
09:05 PM 54.7°F12.6°C 50.5°F10.3°C 86% Calm Calm -- 29.85 in1010.8 mb 0.00 in0.0 mm 0.00 in0.0 mm 0.00 in0.0 mm
09:10 PM 54.7°F12.6°C 50.5°F10.3°C 86% 0.2 mph SE0.3 kmh SE 1.1 mph1.8 kmh 29.85 in1010.8 mb 0.00 in0.0 mm 0.00 in0.0 mm 0.00 in0.0 mm
09:15 PM 54.7°F12.6°C 50.5°F10.3°C 86% 0.2 mph SSE0.3 kmh SSE 1.1 mph1.8 kmh 29.85 in1010.8 mb 0.00 in0.0 mm 0.00 in0.0 mm 0.00 in0.0 mm
09:20 PM 54.7°F12.6°C 50.9°F10.5°C 87% 0.2 mph SE0.3 kmh SE 2.0 mph3.2 kmh 29.85 in1010.8 mb 0.00 in0.0 mm 0.00 in0.0 mm 0.00 in0.0 mm
09:25 PM 54.7°F12.6°C 50.9°F10.5°C 87% Calm Calm 2.0 mph3.2 kmh 29.85 in1010.8 mb 0.00 in0.0 mm 0.00 in0.0 mm 0.00 in0.0 mm
09:30 PM 54.7°F12.6°C 50.9°F10.5°C 87% Calm Calm 2.0 mph3.2 kmh 29.85 in1010.8 mb 0.00 in0.0 mm 0.00 in0.0 mm 0.00 in0.0 mm
09:35 PM 54.7°F12.6°C 50.9°F10.5°C 87% 0.2 mph SE0.3 kmh SE 1.1 mph1.8 kmh 29.85 in1010.8 mb 0.00 in0.0 mm 0.00 in0.0 mm 0.00 in0.0 mm
09:40 PM 54.7°F12.6°C 50.9°F10.5°C 87% 0.9 mph SSE1.4 kmh SSE 2.0 mph3.2 kmh 29.84 in1010.5 mb 0.00 in0.0 mm 0.00 in0.0 mm 0.00 in0.0 mm
09:45 PM 54.7°F12.6°C 50.9°F10.5°C 87% Calm Calm 2.0 mph3.2 kmh 29.84 in1010.5 mb 0.00 in0.0 mm 0.00 in0.0 mm 0.00 in0.0 mm
09:50 PM 54.7°F12.6°C 50.9°F10.5°C 87% Calm Calm 2.0 mph3.2 kmh 29.84 in1010.5 mb 0.00 in0.0 mm 0.00 in0.0 mm 0.00 in0.0 mm
09:55 PM 54.7°F12.6°C 50.9°F10.5°C 87% Calm Calm 1.1 mph1.8 kmh 29.84 in1010.5 mb 0.00 in0.0 mm 0.00 in0.0 mm 0.00 in0.0 mm
10:00 PM 54.7°F12.6°C 50.9°F10.5°C 87% Calm Calm 1.1 mph1.8 kmh 29.84 in1010.5 mb 0.00 in0.0 mm 0.00 in0.0 mm 0.00 in0.0 mm
10:05 PM 54.5°F12.5°C 50.7°F10.4°C 87% 0.2 mph SE0.3 kmh SE 1.1 mph1.8 kmh 29.85 in1010.8 mb 0.00 in0.0 mm 0.00 in0.0 mm 0.00 in0.0 mm
10:10 PM 54.5°F12.5°C 50.7°F10.4°C 87% Calm Calm 1.1 mph1.8 kmh 29.85 in1010.8 mb 0.00 in0.0 mm 0.00 in0.0 mm 0.00 in0.0 mm
10:15 PM 54.7°F12.6°C 51.3°F10.7°C 88% 0.2 mph SSE0.3 kmh SSE 2.0 mph3.2 kmh 29.85 in1010.8 mb 0.00 in0.0 mm 0.00 in0.0 mm 0.00 in0.0 mm
10:20 PM 54.5°F12.5°C 50.7°F10.4°C 87% Calm Calm 1.1 mph1.8 kmh 29.84 in1010.5 mb 0.00 in0.0 mm 0.00 in0.0 mm 0.00 in0.0 mm
10:25 PM 54.5°F12.5°C 51.1°F10.6°C 88% Calm Calm 2.0 mph3.2 kmh 29.85 in1010.8 mb 0.00 in0.0 mm 0.00 in0.0 mm 0.00 in0.0 mm
10:30 PM 54.5°F12.5°C 51.1°F10.6°C 88% 0.7 mph SE1.1 kmh SE 2.0 mph3.2 kmh 29.85 in1010.8 mb 0.00 in0.0 mm 0.00 in0.0 mm 0.00 in0.0 mm
10:35 PM 54.5°F12.5°C 51.1°F10.6°C 88% Calm Calm 1.1 mph1.8 kmh 29.85 in1010.8 mb 0.00 in0.0 mm 0.00 in0.0 mm 0.00 in0.0 mm
10:40 PM 54.3°F12.4°C 50.9°F10.5°C 88% 0.9 mph SE1.4 kmh SE 2.0 mph3.2 kmh 29.85 in1010.8 mb 0.00 in0.0 mm 0.00 in0.0 mm 0.00 in0.0 mm
10:45 PM 54.3°F12.4°C 50.9°F10.5°C 88% Calm Calm 1.1 mph1.8 kmh 29.85 in1010.8 mb 0.00 in0.0 mm 0.00 in0.0 mm 0.00 in0.0 mm
10:50 PM 54.1°F12.3°C 50.7°F10.4°C 88% Calm Calm -- 29.85 in1010.8 mb 0.00 in0.0 mm 0.00 in0.0 mm 0.00 in0.0 mm
10:55 PM 54.1°F12.3°C 50.7°F10.4°C 88% Calm Calm -- 29.85 in1010.8 mb 0.00 in0.0 mm 0.00 in0.0 mm 0.00 in0.0 mm
11:00 PM 54.0°F12.2°C 50.5°F10.3°C 88% Calm Calm -- 29.85 in1010.8 mb 0.00 in0.0 mm 0.00 in0.0 mm 0.00 in0.0 mm
11:05 PM 54.0°F12.2°C 50.5°F10.3°C 88% Calm Calm -- 29.85 in1010.8 mb 0.00 in0.0 mm 0.00 in0.0 mm 0.00 in0.0 mm
11:10 PM 53.8°F12.1°C 50.4°F10.2°C 88% Calm Calm -- 29.85 in1010.8 mb 0.00 in0.0 mm 0.00 in0.0 mm 0.00 in0.0 mm
11:15 PM 53.6°F12.0°C 50.2°F10.1°C 88% Calm Calm -- 29.85 in1010.8 mb 0.00 in0.0 mm 0.00 in0.0 mm 0.00 in0.0 mm
11:20 PM 53.8°F12.1°C 50.5°F10.3°C 89% Calm Calm 1.1 mph1.8 kmh 29.85 in1010.8 mb 0.00 in0.0 mm 0.00 in0.0 mm 0.00 in0.0 mm
11:25 PM 54.0°F12.2°C 50.7°F10.4°C 89% Calm Calm -- 29.86 in1011.2 mb 0.00 in0.0 mm 0.00 in0.0 mm 0.00 in0.0 mm
11:30 PM 54.0°F12.2°C 50.7°F10.4°C 89% Calm Calm -- 29.86 in1011.2 mb 0.00 in0.0 mm 0.00 in0.0 mm 0.00 in0.0 mm
11:35 PM 54.1°F12.3°C 50.9°F10.5°C 89% Calm Calm -- 29.86 in1011.2 mb 0.00 in0.0 mm 0.00 in0.0 mm 0.00 in0.0 mm
11:40 PM 54.1°F12.3°C 50.7°F10.4°C 88% Calm Calm -- 29.86 in1011.2 mb 0.00 in0.0 mm 0.00 in0.0 mm 0.00 in0.0 mm
11:45 PM 54.3°F12.4°C 51.1°F10.6°C 89% Calm Calm -- 29.86 in1011.2 mb 0.00 in0.0 mm 0.00 in0.0 mm 0.00 in0.0 mm
11:50 PM 54.5°F12.5°C 51.3°F10.7°C 89% Calm Calm -- 29.86 in1011.2 mb 0.00 in0.0 mm 0.00 in0.0 mm 0.00 in0.0 mm
11:55 PM 54.7°F12.6°C 51.4°F10.8°C 89% 0.2 mph SE0.3 kmh SE 1.1 mph1.8 kmh 29.86 in1011.2 mb 0.00 in0.0 mm 0.00 in0.0 mm 0.00 in0.0 mm